createdAt,value
2019-03-05T00:02:09.543Z,67.50
2019-03-05T00:04:39.924Z,67.55
2019-03-05T00:07:10.360Z,67.87
2019-03-05T00:09:40.771Z,67.69
2019-03-05T00:12:11.250Z,68.17
2019-03-05T00:14:41.853Z,68.23
2019-03-05T00:17:12.349Z,68.67
2019-03-05T00:19:42.770Z,68.81
2019-03-05T00:22:13.029Z,68.85
2019-03-05T00:25:08.737Z,68.95
2019-03-05T00:27:44.178Z,68.61
2019-03-05T00:30:33.947Z,68.65
2019-03-05T00:33:48.408Z,68.68
2019-03-05T00:36:43.467Z,68.95
2019-03-05T00:39:46.599Z,69.15
2019-03-05T00:43:10.115Z,69.13
2019-03-05T00:46:30.093Z,68.52
2019-03-05T00:49:27.564Z,68.56
2019-03-05T00:52:23.522Z,67.54
2019-03-05T00:55:36.969Z,67.51
2019-03-05T00:58:21.743Z,67.21
2019-03-05T01:01:20.988Z,67.19
2019-03-05T01:04:39.749Z,67.65
2019-03-05T01:07:10.337Z,67.50
2019-03-05T01:09:40.848Z,67.12
2019-03-05T01:12:12.877Z,66.81
2019-03-05T01:14:43.808Z,66.12
2019-03-05T01:17:14.266Z,66.61
2019-03-05T01:19:44.769Z,66.87
2019-03-05T01:22:15.303Z,66.84
2019-03-05T01:24:46.067Z,66.68
2019-03-05T01:27:16.658Z,66.71
2019-03-05T01:29:47.093Z,66.97
2019-03-05T01:32:36.437Z,66.98
2019-03-05T01:35:27.073Z,66.95
2019-03-05T01:37:57.839Z,66.95
2019-03-05T01:40:32.941Z,67.15
2019-03-05T01:43:03.673Z,66.96
2019-03-05T01:45:34.299Z,67.24
2019-03-05T01:48:05.035Z,67.28
2019-03-05T01:50:35.577Z,67.38
2019-03-05T01:53:06.165Z,67.57
2019-03-05T01:55:36.592Z,67.41
2019-03-05T01:58:06.927Z,67.49
2019-03-05T02:00:39.012Z,67.26
2019-03-05T02:03:09.537Z,67.39
2019-03-05T02:05:40.058Z,67.78
2019-03-05T02:08:10.907Z,68.00
2019-03-05T02:10:42.361Z,68.03
2019-03-05T02:13:12.747Z,68.11
2019-03-05T02:15:43.146Z,68.18
2019-03-05T02:18:20.339Z,68.31
2019-03-05T02:20:51.048Z,68.47
2019-03-05T02:24:02.617Z,68.26
2019-03-05T02:27:19.420Z,68.07
2019-03-05T02:30:23.456Z,68.18
2019-03-05T02:33:31.021Z,68.35
2019-03-05T02:36:22.947Z,68.24
2019-03-05T02:39:27.213Z,68.42
2019-03-05T02:42:38.494Z,68.28
2019-03-05T02:45:41.207Z,68.38
2019-03-05T02:48:55.233Z,68.28
2019-03-05T02:52:02.248Z,68.37
2019-03-05T02:55:17.557Z,68.14
2019-03-05T02:57:45.723Z,67.89
2019-03-05T03:00:21.565Z,67.75
2019-03-05T03:02:57.853Z,67.78
2019-03-05T03:05:42.071Z,67.67
2019-03-05T03:08:12.640Z,67.96
2019-03-05T03:10:43.379Z,68.19
2019-03-05T03:13:13.899Z,68.21
2019-03-05T03:15:44.506Z,68.66
2019-03-05T03:18:15.130Z,68.42
2019-03-05T03:20:45.610Z,68.42
2019-03-05T03:23:16.120Z,68.83
2019-03-05T03:25:46.537Z,68.54
2019-03-05T03:28:16.907Z,68.64
2019-03-05T03:30:47.513Z,68.34
2019-03-05T03:33:17.826Z,67.64
2019-03-05T03:35:48.213Z,67.57
2019-03-05T03:38:18.770Z,67.32
2019-03-05T03:40:49.233Z,67.14
2019-03-05T03:43:19.774Z,67.20
2019-03-05T03:45:50.217Z,67.04
2019-03-05T03:48:20.797Z,67.12
2019-03-05T03:50:51.249Z,66.68
2019-03-05T03:53:21.619Z,66.86
2019-03-05T03:55:52.113Z,66.56
2019-03-05T03:58:22.478Z,66.32
2019-03-05T04:00:53.036Z,66.12
2019-03-05T04:03:23.679Z,65.89
2019-03-05T04:05:54.552Z,65.58
2019-03-05T04:08:24.909Z,65.43
2019-03-05T04:10:55.399Z,65.60
2019-03-05T04:13:25.923Z,65.61
2019-03-05T04:15:56.498Z,65.19
2019-03-05T04:18:26.948Z,65.84
2019-03-05T04:20:57.460Z,65.46
2019-03-05T04:23:28.003Z,65.52
2019-03-05T04:25:58.553Z,65.25
2019-03-05T04:28:29.023Z,65.14
2019-03-05T04:30:59.472Z,64.90
2019-03-05T04:33:29.903Z,65.06
2019-03-05T04:36:01.143Z,64.76
2019-03-05T04:38:31.483Z,64.80
2019-03-05T04:41:01.893Z,64.40
2019-03-05T04:43:32.242Z,64.73
2019-03-05T04:46:08.049Z,64.83
2019-03-05T04:48:38.916Z,65.01
2019-03-05T04:51:21.503Z,64.74
2019-03-05T04:53:52.333Z,65.00
2019-03-05T04:56:22.892Z,65.01
2019-03-05T04:58:53.219Z,64.79
2019-03-05T05:01:23.738Z,64.87
2019-03-05T05:03:54.054Z,64.82
2019-03-05T05:06:24.503Z,64.71
2019-03-05T05:08:54.976Z,64.58
2019-03-05T05:11:25.800Z,64.82
2019-03-05T05:13:56.174Z,65.24
2019-03-05T05:16:26.777Z,65.14
2019-03-05T05:18:57.358Z,65.53
2019-03-05T05:21:27.839Z,65.75
2019-03-05T05:23:58.259Z,65.72
2019-03-05T05:26:28.901Z,65.55
2019-03-05T05:28:59.523Z,65.87
2019-03-05T05:31:29.946Z,65.72
2019-03-05T05:34:00.323Z,65.83
2019-03-05T05:36:31.759Z,66.10
2019-03-05T05:39:02.560Z,65.41
2019-03-05T05:41:33.198Z,65.74
2019-03-05T05:44:03.830Z,65.74
2019-03-05T05:46:34.373Z,65.02
2019-03-05T05:49:04.983Z,65.29
2019-03-05T05:51:35.583Z,64.98
2019-03-05T05:54:05.997Z,65.18
2019-03-05T05:56:36.588Z,65.18
2019-03-05T05:59:07.068Z,64.95
2019-03-05T06:01:37.557Z,64.36
2019-03-05T06:04:08.034Z,64.57
2019-03-05T06:06:38.619Z,63.81
2019-03-05T06:09:09.222Z,64.22
2019-03-05T06:11:39.759Z,63.33
2019-03-05T06:14:10.121Z,63.83
2019-03-05T06:16:40.622Z,62.70
2019-03-05T06:19:11.221Z,63.04
2019-03-05T06:21:41.529Z,63.04
2019-03-05T06:24:11.912Z,63.06
2019-03-05T06:26:42.302Z,62.90
2019-03-05T06:29:12.803Z,63.57
2019-03-05T06:31:43.167Z,63.46
2019-03-05T06:34:13.643Z,63.23
2019-03-05T06:36:58.447Z,63.26
2019-03-05T06:39:28.933Z,63.53
2019-03-05T06:41:59.463Z,63.92
2019-03-05T06:44:30.116Z,63.94
2019-03-05T06:47:00.837Z,63.74
2019-03-05T06:49:31.278Z,64.30
2019-03-05T06:52:01.903Z,63.83
2019-03-05T06:54:32.423Z,63.82
2019-03-05T06:57:03.049Z,63.55
2019-03-05T06:59:33.683Z,62.68
2019-03-05T07:02:05.034Z,62.87
2019-03-05T07:04:35.755Z,61.82
2019-03-05T07:07:06.674Z,61.40
2019-03-05T07:10:22.568Z,59.14
2019-03-05T07:13:18.126Z,59.33
2019-03-05T07:16:32.688Z,59.38
2019-03-05T07:19:20.614Z,59.14
2019-03-05T07:22:24.332Z,59.47
2019-03-05T07:24:54.969Z,59.56
2019-03-05T07:27:42.508Z,60.11
2019-03-05T07:30:19.607Z,60.09
2019-03-05T07:32:50.667Z,59.48
2019-03-05T07:35:24.983Z,59.40
2019-03-05T07:37:55.523Z,59.91
2019-03-05T07:40:27.117Z,60.30
2019-03-05T07:42:57.772Z,60.24
2019-03-05T07:45:32.604Z,60.25
2019-03-05T07:48:05.950Z,60.07
2019-03-05T07:50:40.612Z,60.14
2019-03-05T07:53:20.443Z,60.69
2019-03-05T07:55:50.943Z,60.83
2019-03-05T07:58:23.330Z,62.33
2019-03-05T08:00:55.295Z,63.63
2019-03-05T08:03:26.840Z,66.36
2019-03-05T08:05:57.412Z,67.28
2019-03-05T08:09:25.320Z,67.44
2019-03-05T08:11:57.609Z,68.60
2019-03-05T08:14:50.493Z,70.51
2019-03-05T08:17:22.097Z,71.41
2019-03-05T08:19:52.648Z,72.06
2019-03-05T08:22:23.829Z,71.32
2019-03-05T08:24:57.907Z,71.59
2019-03-05T08:27:28.612Z,70.62
2019-03-05T08:30:00.454Z,70.35
2019-03-05T08:32:30.988Z,68.62
2019-03-05T08:35:03.145Z,68.39
2019-03-05T08:37:35.300Z,68.21
2019-03-05T08:40:09.613Z,67.50
2019-03-05T08:42:44.753Z,67.19
2019-03-05T08:45:16.402Z,65.88
2019-03-05T08:47:47.111Z,65.60
2019-03-05T08:50:17.754Z,63.31
2019-03-05T08:52:48.257Z,63.18
2019-03-05T08:55:19.639Z,63.47
2019-03-05T08:57:50.960Z,60.99
2019-03-05T09:00:21.623Z,58.77
2019-03-05T09:02:52.304Z,58.96
2019-03-05T09:05:23.441Z,57.52
2019-03-05T09:07:54.359Z,56.70
2019-03-05T09:10:26.883Z,55.44
2019-03-05T09:12:57.873Z,54.30
2019-03-05T09:15:28.667Z,54.93
2019-03-05T09:17:59.297Z,54.78
2019-03-05T09:20:30.342Z,54.36
2019-03-05T09:23:01.018Z,53.96
2019-03-05T09:25:31.583Z,53.24
2019-03-05T09:28:02.133Z,53.62
2019-03-05T09:30:32.948Z,52.69
2019-03-05T09:33:03.601Z,51.46
2019-03-05T09:35:34.256Z,50.13
2019-03-05T09:38:04.994Z,47.71
2019-03-05T09:40:35.583Z,48.66
2019-03-05T09:43:06.221Z,48.65
2019-03-05T09:45:36.898Z,49.79
2019-03-05T09:48:07.572Z,49.80
2019-03-05T09:50:38.141Z,49.60
2019-03-05T09:53:08.717Z,49.93
2019-03-05T09:55:39.212Z,50.20
2019-03-05T09:58:09.895Z,50.12
2019-03-05T10:00:40.770Z,51.59
2019-03-05T10:03:11.323Z,51.36
2019-03-05T10:05:41.920Z,51.91
2019-03-05T10:08:12.468Z,52.44
2019-03-05T10:10:43.076Z,53.21
2019-03-05T10:13:13.596Z,53.54
2019-03-05T10:15:44.035Z,52.96
2019-03-05T10:18:14.557Z,52.57
2019-03-05T10:20:45.403Z,50.21
2019-03-05T10:23:16.213Z,50.23
2019-03-05T10:25:46.779Z,50.03
2019-03-05T10:28:17.299Z,49.98
2019-03-05T10:30:47.803Z,49.51
2019-03-05T10:33:19.114Z,49.93
2019-03-05T10:35:49.920Z,49.80
2019-03-05T10:38:21.083Z,49.90
2019-03-05T10:40:52.948Z,49.02
2019-03-05T10:43:23.597Z,49.54
2019-03-05T10:45:54.077Z,49.64
2019-03-05T10:48:25.092Z,51.11
2019-03-05T10:50:55.726Z,51.80
2019-03-05T10:53:26.318Z,49.20
2019-03-05T10:55:56.703Z,49.76
2019-03-05T10:58:34.022Z,49.56
2019-03-05T11:01:01.119Z,50.17
2019-03-05T11:03:32.035Z,50.72
2019-03-05T11:06:03.067Z,50.03
2019-03-05T11:08:33.872Z,50.64
2019-03-05T11:11:12.991Z,50.42
2019-03-05T11:13:36.758Z,47.89
2019-03-05T11:16:07.653Z,44.11
2019-03-05T11:18:39.222Z,44.11
2019-03-05T11:21:09.971Z,42.87
2019-03-05T11:23:40.467Z,40.74
2019-03-05T11:26:10.893Z,41.92
2019-03-05T11:28:41.283Z,41.23
2019-03-05T11:31:11.868Z,43.37
2019-03-05T11:33:42.229Z,46.28
2019-03-05T11:36:12.609Z,48.08
2019-03-05T11:38:43.059Z,48.53
2019-03-05T11:41:13.564Z,48.84
2019-03-05T11:43:44.083Z,49.59
2019-03-05T11:46:18.533Z,50.02
2019-03-05T11:48:49.097Z,51.46
2019-03-05T11:51:19.659Z,52.38
2019-03-05T11:53:50.508Z,53.33
2019-03-05T11:56:21.127Z,54.06
2019-03-05T11:58:51.971Z,53.67
2019-03-05T12:01:29.020Z,53.16
2019-03-05T12:04:00.405Z,53.36
2019-03-05T12:06:31.773Z,52.74
2019-03-05T12:09:02.477Z,52.35
2019-03-05T12:11:33.122Z,53.37
2019-03-05T12:14:05.040Z,52.79
2019-03-05T12:16:36.634Z,52.57
2019-03-05T12:19:08.373Z,52.90
2019-03-05T12:21:38.899Z,53.26
2019-03-05T12:24:10.103Z,53.74
2019-03-05T12:26:40.603Z,51.90
2019-03-05T12:29:11.049Z,49.23
2019-03-05T12:31:41.628Z,48.85
2019-03-05T12:34:12.037Z,47.87
2019-03-05T12:36:42.767Z,48.25
2019-03-05T12:39:15.547Z,47.87
2019-03-05T12:41:46.172Z,46.13
2019-03-05T12:44:16.817Z,45.95
2019-03-05T12:46:47.388Z,46.05
2019-03-05T12:49:17.854Z,48.32
2019-03-05T12:51:48.423Z,48.15
2019-03-05T12:54:18.800Z,48.97
2019-03-05T12:56:49.273Z,48.08
2019-03-05T12:59:19.733Z,47.51
2019-03-05T13:01:50.173Z,48.96
2019-03-05T13:04:20.624Z,48.00
2019-03-05T13:06:51.088Z,48.56
2019-03-05T13:09:21.466Z,48.10
2019-03-05T13:11:51.999Z,48.28
2019-03-05T13:14:22.395Z,47.50
2019-03-05T13:16:52.724Z,47.38
2019-03-05T13:19:23.208Z,47.09
2019-03-05T13:21:53.688Z,46.99
2019-03-05T13:24:24.069Z,46.75
2019-03-05T13:26:54.486Z,46.73
2019-03-05T13:29:24.882Z,47.34
2019-03-05T13:31:55.317Z,48.16
2019-03-05T13:34:25.943Z,48.25
2019-03-05T13:36:56.606Z,48.21
2019-03-05T13:39:27.116Z,47.39
2019-03-05T13:41:57.946Z,48.26
2019-03-05T13:44:36.865Z,48.52
2019-03-05T13:47:13.352Z,48.20
2019-03-05T13:50:30.233Z,47.94
2019-03-05T13:53:42.465Z,47.61
2019-03-05T13:57:01.301Z,46.52
2019-03-05T13:59:48.943Z,47.48
2019-03-05T14:02:30.609Z,45.90
2019-03-05T14:05:20.739Z,45.14
2019-03-05T14:08:48.649Z,46.08
2019-03-05T14:11:20.719Z,43.02
2019-03-05T14:13:51.788Z,44.95
2019-03-05T14:16:23.747Z,45.86
2019-03-05T14:18:54.940Z,47.06
2019-03-05T14:21:26.145Z,47.50
2019-03-05T14:23:56.661Z,48.46
2019-03-05T14:26:27.852Z,48.57
2019-03-05T14:28:59.318Z,48.74
2019-03-05T14:31:30.522Z,49.63
2019-03-05T14:34:01.369Z,49.97
2019-03-05T14:36:32.118Z,49.98
2019-03-05T14:39:05.787Z,52.93
2019-03-05T14:41:36.949Z,59.30
2019-03-05T14:44:09.092Z,64.04
2019-03-05T14:46:40.498Z,67.71
2019-03-05T14:49:10.976Z,71.70
2019-03-05T14:51:41.430Z,76.32
2019-03-05T14:54:11.996Z,78.63
2019-03-05T14:56:42.496Z,80.87
2019-03-05T14:59:13.446Z,81.90
2019-03-05T15:01:44.491Z,82.79
2019-03-05T15:04:15.071Z,83.33
2019-03-05T15:06:45.671Z,83.55
2019-03-05T15:09:16.217Z,84.20
2019-03-05T15:11:46.797Z,84.55
2019-03-05T15:14:17.451Z,84.20
2019-03-05T15:16:48.132Z,84.75
2019-03-05T15:19:21.631Z,85.01
2019-03-05T15:21:50.841Z,85.50
2019-03-05T15:24:21.666Z,85.07
2019-03-05T15:26:52.098Z,84.96
2019-03-05T15:29:24.762Z,84.33
2019-03-05T15:31:57.240Z,84.10
2019-03-05T15:34:33.501Z,84.09
2019-03-05T15:37:09.498Z,84.16
2019-03-05T15:39:43.274Z,84.17
2019-03-05T15:42:23.165Z,84.56
2019-03-05T15:45:02.626Z,85.05
2019-03-05T15:47:42.601Z,85.90
2019-03-05T15:50:18.116Z,86.41
2019-03-05T15:52:52.042Z,86.64
2019-03-05T15:55:23.576Z,86.58
2019-03-05T15:57:59.191Z,86.17
2019-03-05T16:00:33.941Z,86.36
2019-03-05T16:03:07.489Z,86.23
2019-03-05T16:05:39.886Z,86.02
2019-03-05T16:08:12.313Z,86.14
2019-03-05T16:10:46.105Z,86.02
2019-03-05T16:13:21.994Z,85.50
2019-03-05T16:15:56.110Z,85.80
2019-03-05T16:18:31.539Z,86.26
2019-03-05T16:21:06.775Z,86.27
2019-03-05T16:23:38.993Z,86.21
2019-03-05T16:26:15.611Z,86.48
2019-03-05T16:28:46.605Z,86.38
2019-03-05T16:31:35.090Z,86.51
2019-03-05T16:34:20.302Z,86.58
2019-03-05T16:37:05.665Z,86.65
2019-03-05T16:39:55.480Z,86.54
2019-03-05T16:42:34.492Z,86.54
2019-03-05T16:45:25.563Z,86.74
2019-03-05T16:48:14.914Z,87.01
2019-03-05T16:50:57.572Z,87.36
2019-03-05T16:53:48.237Z,87.74
2019-03-05T16:56:38.865Z,87.83
2019-03-05T16:59:31.201Z,87.90
2019-03-05T17:02:27.417Z,87.92
2019-03-05T17:05:15.460Z,87.85
2019-03-05T17:07:56.042Z,87.84
2019-03-05T17:10:47.819Z,87.89
2019-03-05T17:13:20.947Z,87.81
2019-03-05T17:15:55.292Z,87.84
2019-03-05T17:18:28.943Z,87.97
2019-03-05T17:21:04.098Z,87.95
2019-03-05T17:23:37.883Z,87.92
2019-03-05T17:26:08.802Z,87.58
2019-03-05T17:28:42.131Z,87.53
2019-03-05T17:31:15.400Z,87.64
2019-03-05T17:33:52.391Z,87.65
2019-03-05T17:36:29.666Z,87.87
2019-03-05T17:39:01.253Z,88.27
2019-03-05T17:41:33.158Z,88.50
2019-03-05T17:44:07.577Z,88.78
2019-03-05T17:46:39.772Z,88.64
2019-03-05T17:49:11.896Z,88.92
2019-03-05T17:51:45.024Z,89.25
2019-03-05T17:54:18.238Z,89.13
2019-03-05T17:56:49.317Z,89.01
2019-03-05T17:59:21.394Z,89.16
2019-03-05T18:01:52.433Z,89.15
2019-03-05T18:04:24.447Z,89.09
2019-03-05T18:07:02.171Z,88.89
2019-03-05T18:09:32.846Z,88.73
2019-03-05T18:12:07.925Z,88.62
2019-03-05T18:14:39.013Z,88.64
2019-03-05T18:17:09.933Z,88.71
2019-03-05T18:19:40.556Z,88.88
2019-03-05T18:22:11.588Z,88.86
2019-03-05T18:24:43.291Z,88.96
2019-03-05T18:27:21.662Z,89.10
2019-03-05T18:29:53.253Z,89.25
2019-03-05T18:32:25.034Z,89.43
2019-03-05T18:34:55.861Z,89.76
2019-03-05T18:37:31.073Z,90.01
2019-03-05T18:40:03.073Z,90.20
2019-03-05T18:42:33.868Z,90.38
2019-03-05T18:45:06.893Z,90.60
2019-03-05T18:47:37.794Z,90.79
2019-03-05T18:50:18.843Z,91.01
2019-03-05T18:52:54.548Z,91.09
2019-03-05T18:55:26.036Z,91.25
2019-03-05T18:57:57.886Z,91.33
2019-03-05T19:00:29.912Z,91.47
2019-03-05T19:03:08.497Z,91.53
2019-03-05T19:05:40.662Z,91.69
2019-03-05T19:08:14.413Z,91.90
2019-03-05T19:10:47.903Z,92.17
2019-03-05T19:13:21.203Z,92.38
2019-03-05T19:15:55.393Z,92.50
2019-03-05T19:18:26.577Z,92.53
2019-03-05T19:20:57.358Z,92.59
2019-03-05T19:23:37.144Z,92.59
2019-03-05T19:26:13.205Z,92.59
2019-03-05T19:28:48.638Z,92.49
2019-03-05T19:31:20.839Z,92.37
2019-03-05T19:33:55.089Z,92.27
2019-03-05T19:36:30.258Z,92.15
2019-03-05T19:39:04.856Z,92.10
2019-03-05T19:41:39.104Z,92.04
2019-03-05T19:44:17.357Z,92.04
2019-03-05T19:46:52.392Z,91.97
2019-03-05T19:49:28.704Z,91.92
2019-03-05T19:52:02.500Z,91.98
2019-03-05T19:54:40.013Z,92.00
2019-03-05T19:57:12.176Z,91.96
2019-03-05T19:59:44.885Z,91.91
2019-03-05T20:02:22.949Z,91.90
2019-03-05T20:04:54.488Z,91.91
2019-03-05T20:07:27.638Z,92.15
2019-03-05T20:10:11.073Z,92.45
2019-03-05T20:12:57.384Z,92.64
2019-03-05T20:15:29.592Z,92.73
2019-03-05T20:18:09.614Z,92.75
2019-03-05T20:20:44.819Z,92.78
2019-03-05T20:23:22.582Z,92.82
2019-03-05T20:25:54.759Z,92.87
2019-03-05T20:28:27.808Z,92.86
2019-03-05T20:31:03.821Z,92.97
2019-03-05T20:33:35.214Z,93.08
2019-03-05T20:36:07.143Z,93.19
2019-03-05T20:38:42.514Z,93.36
2019-03-05T20:41:16.764Z,93.46
2019-03-05T20:43:53.827Z,93.49
2019-03-05T20:46:30.071Z,93.50
2019-03-05T20:49:01.494Z,93.48
2019-03-05T20:51:37.323Z,93.46
2019-03-05T20:54:08.366Z,93.53
2019-03-05T20:56:42.494Z,93.70
2019-03-05T20:59:18.832Z,93.87
2019-03-05T21:01:51.509Z,93.95
2019-03-05T21:04:26.279Z,93.91
2019-03-05T21:07:02.917Z,93.77
2019-03-05T21:09:42.933Z,93.56
2019-03-05T21:12:15.257Z,93.41
2019-03-05T21:14:47.303Z,93.29
2019-03-05T21:17:21.698Z,93.18
2019-03-05T21:19:54.607Z,93.09
2019-03-05T21:22:28.359Z,92.91
2019-03-05T21:25:03.358Z,92.80
2019-03-05T21:27:35.775Z,92.72
2019-03-05T21:30:17.743Z,92.60
2019-03-05T21:32:54.287Z,92.35
2019-03-05T21:35:28.062Z,91.95
2019-03-05T21:38:03.283Z,91.51
2019-03-05T21:40:35.650Z,90.92
2019-03-05T21:43:06.563Z,90.32
2019-03-05T21:45:38.697Z,90.03
2019-03-05T21:48:10.620Z,89.91
2019-03-05T21:50:42.297Z,89.95
2019-03-05T21:53:13.137Z,89.93
2019-03-05T21:55:44.221Z,89.99
2019-03-05T21:58:15.510Z,89.98
2019-03-05T22:00:47.219Z,89.65
2019-03-05T22:03:18.382Z,89.29
2019-03-05T22:05:49.303Z,89.32
2019-03-05T22:08:20.741Z,89.35
2019-03-05T22:10:51.606Z,89.31
2019-03-05T22:13:22.188Z,89.36
2019-03-05T22:15:52.837Z,89.55
2019-03-05T22:18:23.358Z,89.56
2019-03-05T22:20:53.929Z,89.42
2019-03-05T22:23:24.539Z,89.47
2019-03-05T22:25:55.155Z,89.62
2019-03-05T22:28:25.798Z,89.73
2019-03-05T22:30:56.669Z,89.74
2019-03-05T22:33:27.119Z,89.76
2019-03-05T22:35:57.728Z,89.83
2019-03-05T22:38:28.367Z,89.89
2019-03-05T22:40:59.132Z,89.87
2019-03-05T22:43:29.667Z,90.03
2019-03-05T22:46:00.991Z,90.19
2019-03-05T22:48:31.753Z,90.33
2019-03-05T22:51:02.456Z,90.55
2019-03-05T22:53:33.072Z,90.80
2019-03-05T22:56:03.620Z,91.09
2019-03-05T22:58:34.287Z,91.33
2019-03-05T23:01:16.419Z,91.38
2019-03-05T23:03:59.584Z,91.08
2019-03-05T23:06:30.473Z,90.99
2019-03-05T23:09:01.257Z,90.98
2019-03-05T23:11:32.549Z,90.75
2019-03-05T23:14:03.194Z,90.55
2019-03-05T23:16:33.819Z,90.36
2019-03-05T23:19:04.591Z,90.00
2019-03-05T23:21:35.329Z,89.76
2019-03-05T23:24:06.133Z,89.58
2019-03-05T23:26:37.290Z,89.54
2019-03-05T23:29:09.970Z,89.45
2019-03-05T23:31:40.828Z,89.58
2019-03-05T23:34:18.089Z,89.74
2019-03-05T23:36:43.909Z,89.81
2019-03-05T23:39:18.880Z,89.86
2019-03-05T23:41:49.465Z,89.90
2019-03-05T23:44:20.162Z,89.93
2019-03-05T23:46:50.853Z,89.90
2019-03-05T23:49:21.318Z,90.03
2019-03-05T23:51:51.889Z,90.20
2019-03-05T23:54:22.571Z,90.22
2019-03-05T23:56:53.138Z,90.24
2019-03-05T23:59:23.734Z,90.39
